Vinegar Bend, Alabama
Current Conditions -  °F | °C
As of 3:56 AM on Sunday 23 Nov 2014 (Local Time) from KMOB Reporting Station
Haze Haze  
Wind Chill: 62°   Ceiling: 200
Heat Index: 62°   Visibility: 2.5mi
Dew Point: 62°   Wind: 7mph
Humidity: 100%   Direction: 70°ENE
Pressure: 29.82"   Gusts: NA
Location:  31.26°N, 88.34°W
Report Text: KMOB 230956Z AUTO 07006KT 2 1/2SM BR OVC002 17/17 A2982 RMK AO2 SLP095 T01670167
Loading
Personal Weather Stations






























Interactive Weather Map New forecast layout! Learn more

10-Day Weather Forecast

Advertisements
Track Severe Weather on mobile